Eastern Oregon Regional At Pendleton Airport
KPDT : rendu visible

Aérodrome :











RETROUVEZ-NOUS SUR...

 
LOGIN :

S'inscrire | Disclaimer

   EN    FR    IT 

 









Légende :    VFR   VFR Marginal   IFR   IFR Intensif   IFR Très Intensif
Visi : 
Plafond : 
>= 8 km
>= 3000ft
5 à 8 km
1000 à 3000 ft
1500m à 5 km
500 à 1000 ft
800 à 1500m
200 à 500 ft
< 800m
< 200 ft
Symboles :   Orages  Brouillard  Fortes neiges  Fortes précipitations  Vent > 20 kt






- Altitude de l'aérodrome : 1497 ft


KPDT - Eastern Oregon Regional At Pendleton

DERNIER METAR :
  • 100853Z AUTO 00000KT 3SM BR OVC002 02/01 A3023 RMK AO2 SLP243 T00170006 58005

METARs EXPIRÉS :
  • 100845Z AUTO 00000KT 3SM BR OVC003 02/01 A3024 RMK AO2 T00170011
  • 100833Z AUTO 00000KT 2SM R26/6000VP6000FT BR OVC003 02/01 A3024 RMK AO2 T00170011
  • 100753Z AUTO 07004KT 1 1/4SM R26/5000VP6000FT BR OVC003 02/01 A3024 RMK AO2 SLP246 T00170006 400440011
  • 100738Z AUTO 08005KT 1SM R26/4500VP6000FT BR OVC003 01/01 A3025 RMK AO2 T00110006
  • 100722Z AUTO 07004KT 1 1/2SM BR OVC003 01/01 A3025 RMK AO2 T00110006
  • 100653Z AUTO 07007KT 3/4SM R26/3500V4500FT BR VV003 02/01 A3025 RMK AO2 SLP249 T00170006

TAF KPDT
Valide du 10 à 06h jusqu'au 11 à 06h UTC


100520Z 1006/1106 VRB03KT 1/4SM FG VV002
TEMPO 1006/1010 1 1/2SM BR OVC003
FM102200 VRB03KT 2SM BR OVC006
FM110200 VRB03KT 1/2SM FG OVC004



MET'MAP, la Météo Aéronautique d'un coup d'oeil ! - Copyright ORBIFLY Décembre 2007 - Disclaimer

ORBIFLY MET'MAP TEAM :

Programmation & Développement : Alexandra Zaïnal
Sur une idée originale de : Baudouin d'Aumeries
Assistance à la programmation : Marc-Olivier Méhu
Soutien technique & logistique : Manuel Goepfert

Contact : metmap@orbifly.com




SOURCES & CREDITS :

   NOAA       Earth
Advisory